createdAt,value
2022-12-04T00:00:05.833Z,17.67
2022-12-04T00:02:51.336Z,17.70
2022-12-04T00:05:36.365Z,17.26
2022-12-04T00:08:21.257Z,17.52
2022-12-04T00:11:06.200Z,17.52
2022-12-04T00:13:51.044Z,17.67
2022-12-04T00:16:36.287Z,17.30
2022-12-04T00:19:21.586Z,17.20
2022-12-04T00:22:06.700Z,17.27
2022-12-04T00:24:51.562Z,18.63
2022-12-04T00:27:36.534Z,17.97
2022-12-04T00:30:21.412Z,17.98
2022-12-04T00:33:06.529Z,18.32
2022-12-04T00:35:51.643Z,17.98
2022-12-04T00:38:36.856Z,18.52
2022-12-04T00:41:22.160Z,18.13
2022-12-04T00:44:07.059Z,18.16
2022-12-04T00:46:51.898Z,18.74
2022-12-04T00:49:36.827Z,18.26
2022-12-04T00:52:21.915Z,18.08
2022-12-04T00:55:06.972Z,18.28
2022-12-04T00:57:55.749Z,18.41
2022-12-04T01:00:43.703Z,18.68
2022-12-04T01:03:29.209Z,18.74
2022-12-04T01:06:14.140Z,19.02
2022-12-04T01:08:58.909Z,18.91
2022-12-04T01:11:43.794Z,19.07
2022-12-04T01:14:28.862Z,19.00
2022-12-04T01:17:13.738Z,18.58
2022-12-04T01:19:58.683Z,18.89
2022-12-04T01:22:43.765Z,17.69
2022-12-04T01:25:28.527Z,18.56
2022-12-04T01:28:13.546Z,18.17
2022-12-04T01:30:58.339Z,17.42
2022-12-04T01:33:43.338Z,17.80
2022-12-04T01:36:28.313Z,17.87
2022-12-04T01:39:13.272Z,17.58
2022-12-04T01:41:58.158Z,18.14
2022-12-04T01:44:43.085Z,17.87
2022-12-04T01:47:28.020Z,17.87
2022-12-04T01:50:12.790Z,18.23
2022-12-04T01:52:57.703Z,18.46
2022-12-04T01:55:42.565Z,18.04
2022-12-04T01:58:27.522Z,18.15
2022-12-04T02:01:12.359Z,17.79
2022-12-04T02:03:57.197Z,17.55
2022-12-04T02:06:42.327Z,18.05
2022-12-04T02:09:27.367Z,18.07
2022-12-04T02:12:12.277Z,17.80
2022-12-04T02:14:57.166Z,18.30
2022-12-04T02:17:42.271Z,18.68
2022-12-04T02:20:27.135Z,17.78
2022-12-04T02:23:12.073Z,17.86
2022-12-04T02:25:56.882Z,17.00
2022-12-04T02:28:41.841Z,17.62
2022-12-04T02:31:26.802Z,17.01
2022-12-04T02:34:11.785Z,16.82
2022-12-04T02:36:56.949Z,16.57
2022-12-04T02:39:41.788Z,16.52
2022-12-04T02:42:26.812Z,16.51
2022-12-04T02:45:11.684Z,16.99
2022-12-04T02:47:56.569Z,16.04
2022-12-04T02:50:41.480Z,16.27
2022-12-04T02:53:26.390Z,16.40
2022-12-04T02:56:11.358Z,16.67
2022-12-04T02:58:56.271Z,16.41
2022-12-04T03:01:41.339Z,16.64
2022-12-04T03:04:26.786Z,17.19
2022-12-04T03:07:11.842Z,16.91
2022-12-04T03:09:57.116Z,17.81
2022-12-04T03:12:42.399Z,17.61
2022-12-04T03:15:27.527Z,18.35
2022-12-04T03:18:12.388Z,17.31
2022-12-04T03:20:57.463Z,17.82
2022-12-04T03:23:42.907Z,17.98
2022-12-04T03:26:27.761Z,18.01
2022-12-04T03:29:12.784Z,17.08
2022-12-04T03:31:57.689Z,17.97
2022-12-04T03:34:42.592Z,18.19
2022-12-04T03:37:27.716Z,17.80
2022-12-04T03:40:12.792Z,17.60
2022-12-04T03:42:57.591Z,19.11
2022-12-04T03:45:42.787Z,18.33
2022-12-04T03:48:27.506Z,18.52
2022-12-04T03:51:12.492Z,19.30
2022-12-04T03:53:57.372Z,18.73
2022-12-04T03:56:42.352Z,19.71
2022-12-04T03:59:27.346Z,19.34
2022-12-04T04:02:12.720Z,19.62
2022-12-04T04:04:57.729Z,19.81
2022-12-04T04:07:42.696Z,19.43
2022-12-04T04:10:28.044Z,20.16
2022-12-04T04:13:12.908Z,19.42
2022-12-04T04:15:57.848Z,20.28
2022-12-04T04:18:42.722Z,19.75
2022-12-04T04:21:27.665Z,19.55
2022-12-04T04:24:12.759Z,19.66
2022-12-04T04:26:57.676Z,19.56
2022-12-04T04:29:44.676Z,19.40
2022-12-04T04:32:33.195Z,19.45
2022-12-04T04:35:18.069Z,19.43
2022-12-04T04:38:03.041Z,19.46
2022-12-04T04:40:47.840Z,19.59
2022-12-04T04:43:32.900Z,19.56
2022-12-04T04:46:17.796Z,19.87
2022-12-04T04:49:03.194Z,20.26
2022-12-04T04:51:48.077Z,19.50
2022-12-04T04:54:33.015Z,19.81
2022-12-04T04:57:18.089Z,20.11
2022-12-04T05:00:02.879Z,20.06
2022-12-04T05:02:47.920Z,19.72
2022-12-04T05:05:32.639Z,19.68
2022-12-04T05:08:17.648Z,20.30
2022-12-04T05:11:02.871Z,20.34
2022-12-04T05:13:47.832Z,20.45
2022-12-04T05:16:32.994Z,20.75
2022-12-04T05:19:17.785Z,20.71
2022-12-04T05:22:02.776Z,20.02
2022-12-04T05:24:47.574Z,19.98
2022-12-04T05:27:32.575Z,20.28
2022-12-04T05:30:17.417Z,20.57
2022-12-04T05:33:02.373Z,20.17
2022-12-04T05:35:47.362Z,19.67
2022-12-04T05:38:32.250Z,20.07
2022-12-04T05:41:17.210Z,20.12
2022-12-04T05:44:02.046Z,20.42
2022-12-04T05:46:47.204Z,20.30
2022-12-04T05:49:32.042Z,20.68
2022-12-04T05:52:17.084Z,20.64
2022-12-04T05:55:01.890Z,20.58
2022-12-04T05:57:46.878Z,19.96
2022-12-04T06:00:31.657Z,20.14
2022-12-04T06:03:16.729Z,20.41
2022-12-04T06:06:01.729Z,20.47
2022-12-04T06:08:46.467Z,20.33
2022-12-04T06:11:31.631Z,20.88
2022-12-04T06:14:16.444Z,20.65
2022-12-04T06:17:01.362Z,20.88
2022-12-04T06:19:46.361Z,20.83
2022-12-04T06:22:31.372Z,20.38
2022-12-04T06:25:16.236Z,21.36
2022-12-04T06:28:01.218Z,21.53
2022-12-04T06:30:46.183Z,21.78
2022-12-04T06:33:31.052Z,21.31
2022-12-04T06:36:16.054Z,20.86
2022-12-04T06:39:00.841Z,20.91
2022-12-04T06:41:45.894Z,21.30
2022-12-04T06:44:30.777Z,21.31
2022-12-04T06:47:15.943Z,21.09
2022-12-04T06:50:00.978Z,21.74
2022-12-04T06:52:45.817Z,21.63
2022-12-04T06:55:30.818Z,21.94
2022-12-04T06:58:15.757Z,22.28
2022-12-04T07:01:00.828Z,22.05
2022-12-04T07:03:50.946Z,21.77
2022-12-04T07:06:36.741Z,22.25
2022-12-04T07:09:21.646Z,21.71
2022-12-04T07:12:06.498Z,22.45
2022-12-04T07:14:51.423Z,22.17
2022-12-04T07:17:36.298Z,22.13
2022-12-04T07:20:21.347Z,21.69
2022-12-04T07:23:07.523Z,22.05
2022-12-04T07:25:52.679Z,22.76
2022-12-04T07:28:37.541Z,22.83
2022-12-04T07:31:22.506Z,22.36
2022-12-04T07:34:07.940Z,21.77
2022-12-04T07:36:52.833Z,22.09
2022-12-04T07:39:37.754Z,22.89
2022-12-04T07:42:24.389Z,22.18
2022-12-04T07:45:09.794Z,22.53
2022-12-04T07:47:54.647Z,22.16
2022-12-04T07:50:39.494Z,22.49
2022-12-04T07:53:24.562Z,22.83
2022-12-04T07:56:09.949Z,22.68
2022-12-04T07:58:55.006Z,22.78
2022-12-04T08:01:40.083Z,22.95
2022-12-04T08:04:25.011Z,22.89
2022-12-04T08:07:09.976Z,22.18
2022-12-04T08:09:55.041Z,23.37
2022-12-04T08:12:40.432Z,23.16
2022-12-04T08:15:25.553Z,22.98
2022-12-04T08:18:10.577Z,23.07
2022-12-04T08:20:55.652Z,23.33
2022-12-04T08:23:40.548Z,23.44
2022-12-04T08:26:25.490Z,23.80
2022-12-04T08:29:10.394Z,23.52
2022-12-04T08:31:55.349Z,23.16
2022-12-04T08:34:40.151Z,24.17
2022-12-04T08:37:25.171Z,23.64
2022-12-04T08:40:10.177Z,23.12
2022-12-04T08:42:55.130Z,23.57
2022-12-04T08:45:40.050Z,24.22
2022-12-04T08:48:25.085Z,24.21
2022-12-04T08:51:10.059Z,24.06
2022-12-04T08:53:55.082Z,24.17
2022-12-04T08:56:40.036Z,24.43
2022-12-04T08:59:24.937Z,22.79
2022-12-04T09:02:09.982Z,22.97
2022-12-04T09:04:54.923Z,23.15
2022-12-04T09:07:39.864Z,23.37
2022-12-04T09:10:24.824Z,23.40
2022-12-04T09:13:09.703Z,22.95
2022-12-04T09:15:54.800Z,24.47
2022-12-04T09:18:39.601Z,23.48
2022-12-04T09:21:24.622Z,22.60
2022-12-04T09:24:09.520Z,23.30
2022-12-04T09:26:54.615Z,22.80
2022-12-04T09:29:39.756Z,21.87
2022-12-04T09:32:24.601Z,22.52
2022-12-04T09:35:09.623Z,21.94
2022-12-04T09:37:54.506Z,21.42
2022-12-04T09:40:39.469Z,21.29
2022-12-04T09:43:24.402Z,21.49
2022-12-04T09:46:09.357Z,22.18
2022-12-04T09:48:54.720Z,22.00
2022-12-04T09:51:39.730Z,22.95
2022-12-04T09:54:25.466Z,22.07
2022-12-04T09:57:10.745Z,21.21
2022-12-04T09:59:55.977Z,21.86
2022-12-04T10:02:41.402Z,22.01
2022-12-04T10:05:26.415Z,21.75
2022-12-04T10:08:11.601Z,22.02
2022-12-04T10:10:56.630Z,21.81
2022-12-04T10:13:42.032Z,22.29
2022-12-04T10:16:27.229Z,22.15
2022-12-04T10:19:12.522Z,21.75
2022-12-04T10:21:57.616Z,22.30
2022-12-04T10:24:43.017Z,21.52
2022-12-04T10:27:27.964Z,21.71
2022-12-04T10:30:12.902Z,22.09
2022-12-04T10:32:57.758Z,21.91
2022-12-04T10:35:42.668Z,21.81
2022-12-04T10:38:27.725Z,22.22
2022-12-04T10:41:15.106Z,22.28
2022-12-04T10:44:00.457Z,22.41
2022-12-04T10:46:46.553Z,22.50
2022-12-04T10:49:31.961Z,22.52
2022-12-04T10:52:16.921Z,23.53
2022-12-04T10:55:02.584Z,23.49
2022-12-04T10:57:48.117Z,22.82
2022-12-04T11:00:33.074Z,22.55
2022-12-04T11:03:18.075Z,22.96
2022-12-04T11:06:02.991Z,23.34
2022-12-04T11:08:47.971Z,22.96
2022-12-04T11:11:33.022Z,22.56
2022-12-04T11:14:17.919Z,23.41
2022-12-04T11:17:03.303Z,23.04
2022-12-04T11:19:48.295Z,23.54
2022-12-04T11:22:33.094Z,23.85
2022-12-04T11:25:18.200Z,23.30
2022-12-04T11:28:02.980Z,22.55
2022-12-04T11:30:48.731Z,22.84
2022-12-04T11:33:34.185Z,22.84
2022-12-04T11:36:19.224Z,22.11
2022-12-04T11:39:04.106Z,21.88
2022-12-04T11:41:49.367Z,21.41
2022-12-04T11:44:34.752Z,21.63
2022-12-04T11:47:19.719Z,21.61
2022-12-04T11:50:04.702Z,21.47
2022-12-04T11:52:49.826Z,20.90
2022-12-04T11:55:34.635Z,21.03
2022-12-04T11:58:20.309Z,20.54
2022-12-04T12:01:05.729Z,21.35
2022-12-04T12:03:50.677Z,21.15
2022-12-04T12:06:35.970Z,21.31
2022-12-04T12:09:21.551Z,20.91
2022-12-04T12:12:07.217Z,20.98
2022-12-04T12:14:52.301Z,20.60
2022-12-04T12:17:37.156Z,20.78
2022-12-04T12:20:22.487Z,21.16
2022-12-04T12:23:07.827Z,21.16
2022-12-04T12:25:52.779Z,20.95
2022-12-04T12:28:38.705Z,21.68
2022-12-04T12:31:24.122Z,20.02
2022-12-04T12:34:09.245Z,19.82
2022-12-04T12:36:59.382Z,19.24
2022-12-04T12:39:46.454Z,19.08
2022-12-04T12:42:31.557Z,22.28
2022-12-04T12:45:16.803Z,23.16
2022-12-04T12:48:01.690Z,21.10
2022-12-04T12:50:54.754Z,19.78
2022-12-04T12:53:48.945Z,20.62
2022-12-04T12:56:33.841Z,20.36
2022-12-04T12:59:18.785Z,20.46
2022-12-04T13:02:04.365Z,21.33
2022-12-04T13:04:49.357Z,21.30
2022-12-04T13:07:34.636Z,20.45
2022-12-04T13:10:19.721Z,21.19
2022-12-04T13:13:04.824Z,21.90
2022-12-04T13:15:49.534Z,22.45
2022-12-04T13:18:34.621Z,22.06
2022-12-04T13:21:19.416Z,21.94
2022-12-04T13:24:04.340Z,22.21
2022-12-04T13:26:49.812Z,22.52
2022-12-04T13:29:35.128Z,21.89
2022-12-04T13:32:25.611Z,22.21
2022-12-04T13:35:12.223Z,22.25
2022-12-04T13:37:57.443Z,22.31
2022-12-04T13:40:43.120Z,21.97
2022-12-04T13:43:28.265Z,21.71
2022-12-04T13:46:13.403Z,22.35
2022-12-04T13:48:58.700Z,22.56
2022-12-04T13:51:43.816Z,22.09
2022-12-04T13:54:29.027Z,22.74
2022-12-04T13:57:14.417Z,21.62
2022-12-04T14:00:00.734Z,22.66
2022-12-04T14:02:45.738Z,22.32
2022-12-04T14:05:31.216Z,23.06
2022-12-04T14:08:17.021Z,23.14
2022-12-04T14:11:02.491Z,23.33
2022-12-04T14:13:48.100Z,23.24
2022-12-04T14:16:33.009Z,22.22
2022-12-04T14:19:17.947Z,22.06
2022-12-04T14:22:03.042Z,22.19
2022-12-04T14:24:48.181Z,21.80
2022-12-04T14:27:33.217Z,21.98
2022-12-04T14:30:18.601Z,22.02
2022-12-04T14:33:03.563Z,22.39
2022-12-04T14:35:48.510Z,22.31
2022-12-04T14:38:33.453Z,21.84
2022-12-04T14:41:18.478Z,22.12
2022-12-04T14:44:04.033Z,21.68
2022-12-04T14:46:49.066Z,20.97
2022-12-04T14:49:34.606Z,22.07
2022-12-04T14:52:19.786Z,21.38
2022-12-04T14:55:05.195Z,21.49
2022-12-04T14:57:50.595Z,21.43
2022-12-04T15:00:35.578Z,21.69
2022-12-04T15:03:20.629Z,21.59
2022-12-04T15:06:06.200Z,21.98
2022-12-04T15:08:51.196Z,21.55
2022-12-04T15:11:36.371Z,23.23
2022-12-04T15:14:21.830Z,24.05
2022-12-04T15:17:06.679Z,24.63
2022-12-04T15:19:51.687Z,23.75
2022-12-04T15:22:36.743Z,23.42
2022-12-04T15:25:21.913Z,23.50
2022-12-04T15:28:06.702Z,23.81
2022-12-04T15:30:51.814Z,23.29
2022-12-04T15:33:36.660Z,23.84
2022-12-04T15:36:21.589Z,23.52
2022-12-04T15:39:06.839Z,24.83
2022-12-04T15:41:52.041Z,23.47
2022-12-04T15:44:37.081Z,23.69
2022-12-04T15:47:22.070Z,22.66
2022-12-04T15:50:07.117Z,23.13
2022-12-04T15:52:51.944Z,22.74
2022-12-04T15:55:37.038Z,22.03
2022-12-04T15:58:21.921Z,22.33
2022-12-04T16:01:07.081Z,22.35
2022-12-04T16:03:52.149Z,22.16
2022-12-04T16:06:37.688Z,21.78
2022-12-04T16:09:23.139Z,22.64
2022-12-04T16:12:08.171Z,22.02
2022-12-04T16:14:53.304Z,22.89
2022-12-04T16:17:38.840Z,22.90
2022-12-04T16:20:23.784Z,22.13
2022-12-04T16:23:08.777Z,22.52
2022-12-04T16:25:53.966Z,22.71
2022-12-04T16:28:39.221Z,22.49
2022-12-04T16:31:24.109Z,21.16
2022-12-04T16:34:09.593Z,21.12
2022-12-04T16:36:54.569Z,22.22
2022-12-04T16:39:41.481Z,22.51
2022-12-04T16:42:27.142Z,26.08
2022-12-04T16:45:12.080Z,25.86
2022-12-04T16:47:57.092Z,24.80
2022-12-04T16:50:42.004Z,25.27
2022-12-04T16:53:27.130Z,24.00
2022-12-04T16:56:12.268Z,24.12
2022-12-04T16:58:57.370Z,24.38
2022-12-04T17:01:42.494Z,23.23
2022-12-04T17:04:27.861Z,22.84
2022-12-04T17:07:12.792Z,23.33
2022-12-04T17:09:57.642Z,23.45
2022-12-04T17:12:42.662Z,22.69
2022-12-04T17:15:27.616Z,24.04
2022-12-04T17:18:19.234Z,23.90
2022-12-04T17:21:06.195Z,23.53
2022-12-04T17:23:51.173Z,25.96
2022-12-04T17:26:36.012Z,24.71
2022-12-04T17:29:21.107Z,24.24
2022-12-04T17:32:06.031Z,24.13
2022-12-04T17:34:51.034Z,25.49
2022-12-04T17:37:35.894Z,25.42
2022-12-04T17:40:20.962Z,24.82
2022-12-04T17:43:05.756Z,25.58
2022-12-04T17:45:50.708Z,25.78
2022-12-04T17:48:35.705Z,27.64
2022-12-04T17:51:20.842Z,27.21
2022-12-04T17:54:05.814Z,25.64
2022-12-04T17:56:56.140Z,25.81
2022-12-04T17:59:42.651Z,27.21
2022-12-04T18:02:27.809Z,26.76
2022-12-04T18:05:13.036Z,26.58
2022-12-04T18:07:58.256Z,26.65
2022-12-04T18:10:43.740Z,26.48
2022-12-04T18:13:28.592Z,25.99
2022-12-04T18:16:13.697Z,25.55
2022-12-04T18:18:58.421Z,25.67
2022-12-04T18:21:43.356Z,25.26
2022-12-04T18:24:28.374Z,25.01
2022-12-04T18:27:13.397Z,25.30
2022-12-04T18:29:58.637Z,26.30
2022-12-04T18:32:43.701Z,25.37
2022-12-04T18:35:28.611Z,27.38
2022-12-04T18:38:13.632Z,26.91
2022-12-04T18:40:58.688Z,26.62
2022-12-04T18:43:43.609Z,27.84
2022-12-04T18:46:28.761Z,28.94
2022-12-04T18:49:14.114Z,28.70
2022-12-04T18:51:59.088Z,26.01
2022-12-04T18:54:44.181Z,25.03
2022-12-04T18:57:29.127Z,24.36
2022-12-04T19:00:14.092Z,23.48
2022-12-04T19:02:59.144Z,24.95
2022-12-04T19:05:44.188Z,25.88
2022-12-04T19:08:33.245Z,24.46
2022-12-04T19:11:19.964Z,23.80
2022-12-04T19:14:12.506Z,23.52
2022-12-04T19:17:01.145Z,24.44
2022-12-04T19:19:46.022Z,24.59
2022-12-04T19:22:30.936Z,24.11
2022-12-04T19:25:15.963Z,24.35
2022-12-04T19:28:02.914Z,24.63
2022-12-04T19:30:48.001Z,23.57
2022-12-04T19:33:33.105Z,23.83
2022-12-04T19:36:17.957Z,24.09
2022-12-04T19:39:03.014Z,24.49
2022-12-04T19:41:47.806Z,23.61
2022-12-04T19:44:48.344Z,23.51
2022-12-04T19:47:34.539Z,23.69
2022-12-04T19:50:19.396Z,23.23
2022-12-04T19:53:04.624Z,26.61
2022-12-04T19:55:49.971Z,24.90
2022-12-04T19:58:34.993Z,25.22
2022-12-04T20:01:19.974Z,24.53
2022-12-04T20:04:05.387Z,24.65
2022-12-04T20:06:50.263Z,25.91
2022-12-04T20:09:35.371Z,25.36
2022-12-04T20:12:20.541Z,25.42
2022-12-04T20:15:05.348Z,24.32
2022-12-04T20:17:50.576Z,23.95
2022-12-04T20:20:35.981Z,24.12
2022-12-04T20:23:21.023Z,24.20
2022-12-04T20:26:06.106Z,25.35
2022-12-04T20:28:51.083Z,24.67
2022-12-04T20:31:36.671Z,24.27
2022-12-04T20:34:21.364Z,23.95
2022-12-04T20:37:06.553Z,24.51
2022-12-04T20:39:51.969Z,24.44
2022-12-04T20:42:37.035Z,25.09
2022-12-04T20:45:21.978Z,25.77
2022-12-04T20:48:06.957Z,25.34
2022-12-04T20:50:51.966Z,25.01
2022-12-04T20:53:36.788Z,25.41
2022-12-04T20:56:21.886Z,26.42
2022-12-04T20:59:06.780Z,25.81
2022-12-04T21:01:52.025Z,25.88
2022-12-04T21:04:37.384Z,25.80
2022-12-04T21:07:22.558Z,28.21
2022-12-04T21:10:07.458Z,27.81
2022-12-04T21:12:52.383Z,27.36
2022-12-04T21:15:37.474Z,26.80
2022-12-04T21:18:22.433Z,27.06
2022-12-04T21:21:07.427Z,29.02
2022-12-04T21:23:52.424Z,26.69
2022-12-04T21:26:37.670Z,27.30
2022-12-04T21:29:22.587Z,27.27
2022-12-04T21:32:07.464Z,26.11
2022-12-04T21:34:52.426Z,25.91
2022-12-04T21:37:37.386Z,25.00
2022-12-04T21:40:22.410Z,22.25
2022-12-04T21:43:07.777Z,17.86
2022-12-04T21:45:52.877Z,16.30
2022-12-04T21:48:37.803Z,17.31
2022-12-04T21:51:48.660Z,14.38
2022-12-04T21:54:28.168Z,10.97
2022-12-04T21:57:12.867Z,9.22
2022-12-04T21:59:58.079Z,9.26
2022-12-04T22:02:43.288Z,9.47
2022-12-04T22:05:28.134Z,10.21
2022-12-04T22:08:12.954Z,9.10
2022-12-04T22:10:57.814Z,9.36
2022-12-04T22:13:42.785Z,8.72
2022-12-04T22:16:30.575Z,8.69
2022-12-04T22:19:16.581Z,8.19
2022-12-04T22:22:01.534Z,8.73
2022-12-04T22:24:46.423Z,7.93
2022-12-04T22:27:31.331Z,7.94
2022-12-04T22:30:16.791Z,7.71
2022-12-04T22:33:01.688Z,8.47
2022-12-04T22:35:46.585Z,9.48
2022-12-04T22:38:31.567Z,11.11
2022-12-04T22:41:16.551Z,12.35
2022-12-04T22:44:01.408Z,12.18
2022-12-04T22:46:46.350Z,13.21
2022-12-04T22:49:31.263Z,12.66
2022-12-04T22:52:16.020Z,12.92
2022-12-04T22:55:00.865Z,13.91
2022-12-04T22:57:45.820Z,14.76
2022-12-04T23:00:30.653Z,15.03
2022-12-04T23:03:15.808Z,14.89
2022-12-04T23:06:01.159Z,13.97
2022-12-04T23:08:46.111Z,12.76
2022-12-04T23:11:31.191Z,12.11
2022-12-04T23:14:16.194Z,12.31
2022-12-04T23:17:01.222Z,11.35
2022-12-04T23:19:46.020Z,10.95
2022-12-04T23:22:31.164Z,11.48
2022-12-04T23:25:16.232Z,10.79
2022-12-04T23:28:01.143Z,9.75
2022-12-04T23:30:46.066Z,9.52
2022-12-04T23:33:30.950Z,9.77
2022-12-04T23:36:15.913Z,9.56
2022-12-04T23:39:00.894Z,8.87
2022-12-04T23:41:45.785Z,8.81
2022-12-04T23:44:30.781Z,8.89
2022-12-04T23:47:15.802Z,8.48
2022-12-04T23:50:01.409Z,9.01
2022-12-04T23:52:46.461Z,8.90
2022-12-04T23:55:34.485Z,8.38
2022-12-04T23:58:19.716Z,8.69
